Time;durP1;ratioP1;P1;durP2;ratioP2;P2;SDS_P1;SDS_P2;PMS_P1;PMS_P2;Temp;Humidity;BMP_temperature;BMP_pressure;BME280_temperature;BME280_humidity;BME280_pressure;Samples;Min_cycle;Max_cycle;Signal;HPM_P1;HPM_P2
2023/03/31 00:01:27;;;;;;;;;2.00;2.00;;;;;15.90;100.00;99745.69;4849976;29;45370;-79
2023/03/31 00:04:02;;;;;;;;;1.67;1.67;;;;;15.78;100.00;99735.25;4850826;29;45436;-79
2023/03/31 00:06:28;;;;;;;;;2.33;2.33;;;;;15.75;100.00;99733.53;4833362;29;47554;-79
2023/03/31 00:08:54;;;;;;;;;5.67;2.00;;;;;15.75;100.00;99729.94;4833423;29;45403;-80
2023/03/31 00:11:21;;;;;;;;;4.33;2.33;;;;;15.75;100.00;99727.25;4834962;29;45511;-80
2023/03/31 00:13:47;;;;;;;;;3.67;2.00;;;;;15.74;100.00;99686.19;4851400;29;45440;-80
2023/03/31 00:16:13;;;;;;;;;5.33;3.00;;;;;15.69;100.00;99681.81;4852290;29;45744;-80
2023/03/31 00:18:46;;;;;;;;;2.67;2.67;;;;;15.60;100.00;99656.13;4834274;29;45641;-80
2023/03/31 00:21:23;;;;;;;;;5.67;3.33;;;;;15.61;100.00;99652.50;4834546;29;45481;-80
2023/03/31 00:24:01;;;;;;;;;2.67;2.67;;;;;15.59;100.00;99623.09;4820191;29;45432;-81
2023/03/31 00:26:26;;;;;;;;;2.67;2.00;;;;;15.44;100.00;99620.75;4850464;29;46069;-79
2023/03/31 00:28:53;;;;;;;;;4.33;3.00;;;;;15.55;100.00;99609.78;4834068;29;45475;-80
2023/03/31 00:31:19;;;;;;;;;3.00;3.00;;;;;15.58;100.00;99601.66;4834371;29;45450;-80
2023/03/31 00:33:45;;;;;;;;;3.00;2.00;;;;;15.54;100.00;99586.59;4851527;29;45425;-80
2023/03/31 00:36:11;;;;;;;;;4.00;4.00;;;;;15.46;100.00;99572.50;4833943;29;48668;-81
2023/03/31 00:38:36;;;;;;;;;4.33;2.67;;;;;15.47;100.00;99582.28;4833414;29;45442;-81
2023/03/31 00:41:03;;;;;;;;;2.33;2.00;;;;;15.52;100.00;99588.44;4849738;29;45455;-80
2023/03/31 00:43:38;;;;;;;;;3.33;1.67;;;;;15.57;100.00;99576.69;4832824;29;45856;-80
2023/03/31 00:46:26;;;;;;;;;3.33;1.67;;;;;15.71;100.00;99583.47;4849311;29;46051;-80
2023/03/31 00:48:56;;;;;;;;;3.33;3.33;;;;;15.65;100.00;99572.91;4838752;29;45479;-80
2023/03/31 00:51:28;;;;;;;;;4.67;3.33;;;;;15.54;100.00;99541.03;4842167;29;45310;-80
2023/03/31 00:54:03;;;;;;;;;5.00;2.00;;;;;15.53;100.00;99552.66;4854840;29;45346;-79
2023/03/31 00:56:36;;;;;;;;;2.00;2.00;;;;;15.56;100.00;99549.91;4824353;29;47568;-80
2023/03/31 00:59:07;;;;;;;;;2.33;1.67;;;;;15.59;100.00;99547.13;4854701;29;45543;-79
2023/03/31 01:01:38;;;;;;;;;2.00;2.00;;;;;15.46;100.00;99543.03;4855880;29;45428;-80
2023/03/31 01:04:06;;;;;;;;;3.00;2.00;;;;;15.42;100.00;99536.00;4839574;29;45343;-80
2023/03/31 01:06:32;;;;;;;;;5.67;2.33;;;;;15.30;100.00;99524.66;4856519;29;45362;-80
2023/03/31 01:08:59;;;;;;;;;2.00;2.00;;;;;15.30;100.00;99499.66;4839650;29;45811;-80
2023/03/31 01:11:29;;;;;;;;;3.33;2.00;;;;;15.28;100.00;99529.16;4840615;29;45460;-80
2023/03/31 01:13:56;;;;;;;;;2.00;2.00;;;;;15.27;100.00;99530.09;4840377;29;45850;-80
2023/03/31 01:16:21;;;;;;;;;3.00;3.00;;;;;15.16;100.00;99533.00;4854604;29;46020;-79
2023/03/31 01:18:48;;;;;;;;;2.67;1.67;;;;;15.25;100.00;99526.56;4855434;29;45424;-80
2023/03/31 01:21:46;;;;;;;;;2.00;2.00;;;;;15.39;100.00;99524.44;4854980;29;45342;-81
2023/03/31 01:24:23;;;;;;;;;2.67;2.00;;;;;15.27;100.00;99514.03;4854389;29;45523;-80
2023/03/31 01:26:48;;;;;;;;;3.33;2.00;;;;;15.32;100.00;99517.44;4837520;29;46879;-80
2023/03/31 01:29:26;;;;;;;;;2.67;1.67;;;;;15.47;100.00;99513.53;4837278;29;45465;-80
2023/03/31 01:32:19;;;;;;;;;1.00;1.00;;;;;15.48;100.00;99492.97;4837378;29;45483;-80
2023/03/31 01:35:04;;;;;;;;;1.00;1.00;;;;;15.44;100.00;99493.97;4837936;29;45566;-80
2023/03/31 01:38:06;;;;;;;;;2.67;2.67;;;;;15.42;100.00;99491.31;4855581;29;45459;-80
2023/03/31 01:40:40;;;;;;;;;2.00;2.00;;;;;15.32;100.00;99485.31;4838901;29;45732;-80
2023/03/31 01:43:23;;;;;;;;;3.00;1.67;;;;;15.46;100.00;99470.69;4838022;29;45445;-80
2023/03/31 01:46:14;;;;;;;;;3.00;2.67;;;;;15.45;100.00;99458.19;4841865;29;45583;-80
2023/03/31 01:48:42;;;;;;;;;1.33;1.00;;;;;15.29;100.00;99460.38;4838676;29;48272;-80
2023/03/31 01:51:17;;;;;;;;;2.67;2.67;;;;;15.38;100.00;99453.00;4838635;29;45741;-80
2023/03/31 01:54:14;;;;;;;;;1.33;1.33;;;;;15.41;100.00;99438.63;4855443;29;45723;-80
2023/03/31 01:56:51;;;;;;;;;4.00;3.00;;;;;15.36;100.00;99430.72;4855446;29;45412;-80
2023/03/31 01:59:22;;;;;;;;;2.33;2.33;;;;;15.35;100.00;99434.34;4853248;29;45851;-80
2023/03/31 02:01:58;;;;;;;;;5.00;2.00;;;;;15.38;100.00;99418.16;4852708;29;45449;-80
2023/03/31 02:04:41;;;;;;;;;5.00;2.67;;;;;15.44;100.00;99435.00;4836881;29;45341;-80
2023/03/31 02:07:16;;;;;;;;;4.00;3.00;;;;;15.40;100.00;99416.31;4835818;29;45479;-81
2023/03/31 02:09:45;;;;;;;;;3.33;3.00;;;;;15.36;100.00;99420.00;4852262;29;45435;-81
2023/03/31 02:12:12;;;;;;;;;4.00;2.00;;;;;15.29;100.00;99414.84;4836535;29;45819;-81
2023/03/31 02:14:43;;;;;;;;;2.67;2.67;;;;;15.44;100.00;99413.59;4835103;29;45473;-80
2023/03/31 02:17:17;;;;;;;;;3.00;3.00;;;;;15.44;100.00;99392.16;4834958;29;45597;-80
2023/03/31 02:19:46;;;;;;;;;4.33;3.00;;;;;15.44;100.00;99402.88;4835401;29;47453;-80
2023/03/31 02:22:15;;;;;;;;;3.00;2.00;;;;;15.34;100.00;99381.66;4851960;29;45452;-80
2023/03/31 02:24:44;;;;;;;;;4.00;3.00;;;;;15.36;100.00;99384.31;4852709;29;45752;-80
2023/03/31 02:27:20;;;;;;;;;3.00;2.33;;;;;15.38;100.00;99394.06;4851912;29;45705;-80
2023/03/31 02:29:46;;;;;;;;;2.00;2.00;;;;;15.25;100.00;99392.66;4834418;29;48003;-79
2023/03/31 02:32:37;;;;;;;;;4.33;4.00;;;;;15.41;100.00;99379.69;4834271;29;45500;-81
2023/03/31 02:35:05;;;;;;;;;3.67;2.33;;;;;15.33;100.00;99353.16;4835396;29;45447;-80
2023/03/31 02:37:30;;;;;;;;;2.33;2.00;;;;;15.28;100.00;99360.41;4835105;29;45608;-80
2023/03/31 02:40:00;;;;;;;;;8.67;5.33;;;;;15.37;100.00;99344.09;4850712;29;46071;-80
2023/03/31 02:42:26;;;;;;;;;2.00;2.00;;;;;15.32;100.00;99351.38;4835546;29;45492;-80
2023/03/31 02:44:52;;;;;;;;;3.67;3.00;;;;;15.37;100.00;99340.50;4835347;29;45463;-80
2023/03/31 02:47:20;;;;;;;;;2.67;2.67;;;;;15.31;100.00;99322.84;4852423;29;45397;-80
2023/03/31 02:50:00;;;;;;;;;4.00;4.00;;;;;15.32;100.00;99321.03;4852037;29;45875;-78
2023/03/31 02:53:11;;;;;;;;;3.00;3.00;;;;;15.27;100.00;99290.81;4850764;29;45527;-79
2023/03/31 02:55:48;;;;;;;;;3.33;3.00;;;;;15.24;100.00;99310.53;4779079;29;45406;-80
2023/03/31 02:58:47;;;;;;;;;5.67;5.00;;;;;15.23;100.00;99302.53;4762490;29;45884;-80
2023/03/31 03:01:44;;;;;;;;;3.67;2.67;;;;;15.23;100.00;99308.78;4774319;29;45756;-80
2023/03/31 03:04:26;;;;;;;;;2.67;2.67;;;;;15.18;100.00;99302.66;4753158;29;46087;-80
2023/03/31 03:07:05;;;;;;;;;5.33;3.33;;;;;15.12;100.00;99298.34;4775639;29;45492;-80
2023/03/31 03:09:49;;;;;;;;;2.00;2.00;;;;;15.09;100.00;99286.84;4760435;29;44852;-79
2023/03/31 03:12:33;;;;;;;;;3.67;3.67;;;;;15.00;100.00;99286.19;4776599;29;45590;-80
2023/03/31 03:15:11;;;;;;;;;6.67;3.33;;;;;14.97;100.00;99288.09;4775725;29;45697;-81
2023/03/31 03:17:46;;;;;;;;;4.33;3.00;;;;;15.00;100.00;99310.28;4774512;29;45557;-80
2023/03/31 03:20:15;;;;;;;;;8.67;4.67;;;;;14.93;100.00;99306.03;4753929;29;45401;-81
2023/03/31 03:22:41;;;;;;;;;7.67;5.00;;;;;14.88;100.00;99291.88;4761054;29;47057;-80
2023/03/31 03:25:09;;;;;;;;;4.67;3.67;;;;;14.97;100.00;99290.75;4775244;29;45513;-80
2023/03/31 03:27:35;;;;;;;;;6.33;4.33;;;;;15.00;100.00;99294.22;4774695;29;45448;-81
2023/03/31 03:30:03;;;;;;;;;5.00;5.00;;;;;15.05;100.00;99285.16;4776085;29;46004;-81
2023/03/31 03:32:28;;;;;;;;;9.67;5.00;;;;;15.09;100.00;99278.81;4827594;29;45479;-81
2023/03/31 03:34:54;;;;;;;;;4.33;4.00;;;;;15.06;100.00;99274.44;4836133;29;45928;-81
2023/03/31 03:37:19;;;;;;;;;5.67;4.33;;;;;15.02;100.00;99256.69;4833949;29;45970;-81
2023/03/31 03:39:45;;;;;;;;;4.33;4.33;;;;;15.02;100.00;99267.41;4850558;29;45473;-80
2023/03/31 03:42:10;;;;;;;;;5.67;3.00;;;;;14.94;100.00;99270.28;4869209;29;45826;-79
2023/03/31 03:44:36;;;;;;;;;5.00;5.00;;;;;14.91;100.00;99257.00;4851991;29;45223;-80
2023/03/31 03:47:01;;;;;;;;;6.33;3.33;;;;;14.91;100.00;99256.13;4852464;29;45673;-81
2023/03/31 03:49:29;;;;;;;;;3.00;3.00;;;;;15.02;100.00;99253.16;4870441;29;45539;-81
2023/03/31 03:51:55;;;;;;;;;9.67;7.00;;;;;14.87;100.00;99262.50;4852823;29;48141;-81
2023/03/31 03:54:20;;;;;;;;;2.33;2.33;;;;;14.80;100.00;99246.59;4864446;29;45433;-81
2023/03/31 03:56:48;;;;;;;;;5.67;4.33;;;;;14.85;100.00;99241.09;4833182;29;45871;-80
2023/03/31 03:59:14;;;;;;;;;2.00;2.00;;;;;14.87;100.00;99241.94;4849979;29;45388;-81
2023/03/31 04:01:40;;;;;;;;;6.00;4.00;;;;;14.84;100.00;99225.94;4851265;29;45525;-81
2023/03/31 04:04:05;;;;;;;;;2.67;2.67;;;;;14.88;100.00;99227.63;4851623;29;45485;-81
2023/03/31 04:06:37;;;;;;;;;3.33;3.00;;;;;15.08;100.00;99228.88;4834576;29;45613;-80
2023/03/31 04:09:03;;;;;;;;;5.00;4.33;;;;;14.94;100.00;99232.81;4850051;29;45458;-80
2023/03/31 04:11:29;;;;;;;;;5.00;4.00;;;;;14.96;100.00;99214.91;4850621;29;45437;-80
2023/03/31 04:13:54;;;;;;;;;5.00;5.00;;;;;14.98;100.00;99228.25;4851936;29;45416;-80
2023/03/31 04:16:21;;;;;;;;;3.33;3.00;;;;;15.04;100.00;99221.84;4850293;29;45813;-81
2023/03/31 04:18:47;;;;;;;;;6.00;3.67;;;;;15.05;100.00;99227.16;4834549;29;45318;-81
2023/03/31 04:21:21;;;;;;;;;3.33;3.33;;;;;15.09;100.00;99225.25;4832363;29;47258;-81
2023/03/31 04:23:48;;;;;;;;;7.00;6.00;;;;;15.11;100.00;99220.78;4833468;29;45906;-81
2023/03/31 04:26:25;;;;;;;;;4.00;3.00;;;;;15.14;100.00;99229.56;4851189;29;45432;-80
2023/03/31 04:32:13;;;;;;;;;3.67;3.67;;;;;15.18;100.00;99209.81;4850929;29;45413;-80
2023/03/31 04:34:39;;;;;;;;;4.00;4.00;;;;;15.16;100.00;99205.44;4849025;29;45547;-80
2023/03/31 04:37:04;;;;;;;;;7.33;3.33;;;;;15.19;100.00;99208.91;4833547;29;45440;-80
2023/03/31 04:39:30;;;;;;;;;3.00;3.00;;;;;15.17;100.00;99212.56;4833837;29;45881;-80
2023/03/31 04:41:56;;;;;;;;;4.33;4.33;;;;;15.21;100.00;99203.50;4849962;29;45276;-80
2023/03/31 04:44:23;;;;;;;;;4.67;3.67;;;;;15.28;100.00;99207.75;4818413;29;45475;-81
2023/03/31 04:46:49;;;;;;;;;4.33;4.00;;;;;15.19;100.00;99211.56;4833617;29;45470;-80
2023/03/31 04:49:14;;;;;;;;;4.67;4.67;;;;;15.20;100.00;99201.75;4849559;29;45571;-81
2023/03/31 04:51:40;;;;;;;;;7.00;6.33;;;;;15.19;100.00;99194.63;4833133;29;48094;-79
2023/03/31 04:54:06;;;;;;;;;6.00;4.00;;;;;15.19;100.00;99202.69;4849785;29;45520;-80
2023/03/31 04:56:33;;;;;;;;;6.00;4.00;;;;;15.23;100.00;99207.03;4831988;29;45499;-81
2023/03/31 04:58:59;;;;;;;;;4.67;4.00;;;;;15.18;100.00;99208.94;4850770;29;45756;-80
2023/03/31 05:01:27;;;;;;;;;4.67;3.33;;;;;15.27;100.00;99200.66;4851595;29;45448;-81
2023/03/31 05:03:52;;;;;;;;;9.00;4.33;;;;;15.18;100.00;99201.78;4837784;29;45336;-80
2023/03/31 05:06:22;;;;;;;;;6.67;5.00;;;;;15.23;100.00;99212.38;4853102;29;45522;-79
2023/03/31 05:08:47;;;;;;;;;7.00;4.33;;;;;15.26;100.00;99201.56;4850812;29;45469;-80
2023/03/31 05:11:12;;;;;;;;;6.33;4.67;;;;;15.29;100.00;99196.13;4833151;29;47883;-80
2023/03/31 05:13:38;;;;;;;;;8.67;5.00;;;;;15.22;100.00;99183.81;4833123;29;45418;-81
2023/03/31 05:16:09;;;;;;;;;5.33;4.33;;;;;15.39;100.00;99191.34;4833763;29;45368;-80
2023/03/31 05:18:35;;;;;;;;;7.00;5.67;;;;;15.23;100.00;99184.69;4849057;29;45733;-80
2023/03/31 05:21:29;;;;;;;;;6.67;5.00;;;;;15.37;100.00;99194.09;4850127;29;45944;-80
2023/03/31 05:23:55;;;;;;;;;9.00;7.00;;;;;15.22;100.00;99183.81;4847555;29;45386;-79
2023/03/31 05:26:23;;;;;;;;;7.00;4.67;;;;;15.30;100.00;99184.47;4852828;29;45546;-84
2023/03/31 05:28:52;;;;;;;;;9.00;7.00;;;;;15.29;100.00;99177.38;4851959;29;45378;-83
2023/03/31 05:31:19;;;;;;;;;10.67;5.67;;;;;15.27;100.00;99181.91;4849025;29;46573;-83
2023/03/31 05:33:45;;;;;;;;;9.00;5.00;;;;;15.24;100.00;99181.09;4833164;29;45737;-83
2023/03/31 05:36:14;;;;;;;;;5.00;3.00;;;;;15.33;100.00;99181.72;4837006;29;45518;-82
2023/03/31 05:38:48;;;;;;;;;8.00;4.33;;;;;15.36;100.00;99173.56;4848490;29;45580;-81
2023/03/31 05:41:15;;;;;;;;;7.33;4.67;;;;;15.21;100.00;99168.69;4840455;29;47960;-80
2023/03/31 05:43:42;;;;;;;;;7.00;6.00;;;;;15.29;100.00;99185.41;4846168;29;45775;-80
2023/03/31 05:46:08;;;;;;;;;4.00;3.33;;;;;15.18;100.00;99161.59;4856787;29;44927;-80
2023/03/31 05:48:36;;;;;;;;;4.33;3.00;;;;;15.23;100.00;99164.16;4878617;29;45410;-81
2023/03/31 05:51:01;;;;;;;;;4.00;4.00;;;;;15.16;100.00;99178.66;4857779;29;47528;-80
2023/03/31 05:53:27;;;;;;;;;5.00;4.67;;;;;15.18;100.00;99171.44;4859780;29;45503;-80
2023/03/31 05:56:04;;;;;;;;;7.67;5.00;;;;;15.36;100.00;99168.22;4860227;29;45444;-79
2023/03/31 05:58:29;;;;;;;;;5.00;5.00;;;;;15.24;100.00;99171.25;4859294;29;45726;-81
2023/03/31 06:01:10;;;;;;;;;5.67;5.00;;;;;15.33;100.00;99175.44;4858319;29;45474;-79
2023/03/31 06:03:40;;;;;;;;;8.00;5.67;;;;;15.26;100.00;99185.47;4854522;29;45770;-78
2023/03/31 06:06:07;;;;;;;;;2.33;2.33;;;;;15.14;100.00;99170.66;4856421;29;45368;-78
2023/03/31 06:09:06;;;;;;;;;4.00;3.00;;;;;15.37;100.00;99177.13;4855695;29;45424;-78
2023/03/31 06:11:32;;;;;;;;;5.33;4.33;;;;;15.16;100.00;99174.16;4867504;29;46267;-78
2023/03/31 06:13:57;;;;;;;;;5.33;4.00;;;;;15.22;100.00;99178.47;4837455;29;45336;-79
2023/03/31 06:16:28;;;;;;;;;5.00;4.00;;;;;15.35;100.00;99168.25;4837753;29;45445;-78
2023/03/31 06:18:54;;;;;;;;;11.00;6.67;;;;;15.27;100.00;99176.53;4837764;29;45467;-79
2023/03/31 06:21:22;;;;;;;;;6.33;4.33;;;;;15.35;100.00;99163.78;4836570;29;48747;-80
2023/03/31 06:23:47;;;;;;;;;4.67;3.67;;;;;15.25;100.00;99172.13;4849813;29;45438;-79
2023/03/31 06:26:16;;;;;;;;;9.67;5.00;;;;;15.32;100.00;99163.88;4849942;29;45539;-79
2023/03/31 06:28:45;;;;;;;;;3.67;3.67;;;;;15.39;100.00;99162.78;4841837;29;45003;-80
2023/03/31 06:31:14;;;;;;;;;9.67;5.67;;;;;15.44;100.00;99167.09;4849339;29;45450;-79
2023/03/31 06:33:41;;;;;;;;;10.00;6.33;;;;;15.45;100.00;99176.88;4870481;29;45445;-78
2023/03/31 06:36:08;;;;;;;;;9.67;6.00;;;;;15.42;100.00;99180.53;4839392;29;44932;-79
2023/03/31 06:38:34;;;;;;;;;5.67;5.67;;;;;15.46;100.00;99178.66;4871379;29;45445;-79
2023/03/31 06:41:00;;;;;;;;;8.67;6.00;;;;;15.47;100.00;99177.72;4852804;29;47116;-79
2023/03/31 06:43:31;;;;;;;;;2.00;2.00;;;;;15.58;100.00;99186.31;4848793;29;45450;-80
2023/03/31 06:45:57;;;;;;;;;7.33;5.00;;;;;15.55;100.00;99175.66;4862652;29;44823;-80
2023/03/31 06:48:26;;;;;;;;;6.33;6.33;;;;;15.65;100.00;99182.50;4831251;29;45564;-80
2023/03/31 06:50:53;;;;;;;;;6.67;5.67;;;;;15.59;100.00;99190.72;4837652;29;47590;-79
2023/03/31 06:53:20;;;;;;;;;6.00;6.00;;;;;15.63;100.00;99195.06;4871614;29;45399;-79
2023/03/31 06:55:46;;;;;;;;;13.67;6.67;;;;;15.70;100.00;99179.69;4856040;29;45313;-79
2023/03/31 06:58:12;;;;;;;;;10.33;7.33;;;;;15.69;100.00;99169.88;4856258;29;45424;-79
2023/03/31 07:00:37;;;;;;;;;8.00;6.00;;;;;15.68;100.00;99166.31;4872983;29;45394;-80
2023/03/31 07:03:07;;;;;;;;;6.00;4.00;;;;;15.90;100.00;99176.41;4854892;29;45468;-80
2023/03/31 07:05:36;;;;;;;;;8.33;8.00;;;;;15.89;100.00;99175.50;4854629;29;45407;-79
2023/03/31 07:08:05;;;;;;;;;9.67;6.00;;;;;15.92;100.00;99190.63;4871327;29;45509;-79
2023/03/31 07:10:35;;;;;;;;;8.33;4.00;;;;;16.00;100.00;99173.34;4858282;29;47499;-80
2023/03/31 07:13:01;;;;;;;;;3.67;3.67;;;;;15.89;100.00;99185.34;4858300;29;45796;-80
2023/03/31 07:15:27;;;;;;;;;4.00;4.00;;;;;15.86;100.00;99180.09;4873279;29;45198;-79
2023/03/31 07:18:00;;;;;;;;;5.67;3.33;;;;;15.93;100.00;99181.63;4871565;29;45493;-80
2023/03/31 07:20:29;;;;;;;;;4.33;4.33;;;;;16.02;100.00;99178.66;4838940;29;45514;-80
2023/03/31 07:22:56;;;;;;;;;4.00;3.00;;;;;16.03;100.00;99176.84;4833634;29;45834;-79
2023/03/31 07:25:22;;;;;;;;;4.00;3.67;;;;;16.03;100.00;99191.13;4838255;29;45448;-81
2023/03/31 07:27:47;;;;;;;;;4.67;3.00;;;;;16.01;100.00;99193.00;4842230;29;45385;-81
2023/03/31 07:30:18;;;;;;;;;6.00;3.00;;;;;16.13;100.00;99206.00;4856389;29;45483;-81
2023/03/31 07:32:52;;;;;;;;;3.67;3.33;;;;;16.13;100.00;99181.84;4840021;29;46054;-80
2023/03/31 07:35:25;;;;;;;;;3.67;2.33;;;;;16.16;100.00;99189.81;4851959;29;45474;-80
2023/03/31 07:37:51;;;;;;;;;3.33;3.00;;;;;16.15;100.00;99176.44;4837637;29;45613;-79
2023/03/31 07:40:37;;;;;;;;;4.33;3.67;;;;;16.19;100.00;99162.00;4856013;29;47302;-79
2023/03/31 07:43:06;;;;;;;;;2.33;2.33;;;;;16.36;100.00;99196.28;4854097;29;45493;-80
2023/03/31 07:45:45;;;;;;;;;3.00;2.33;;;;;16.55;100.00;99185.81;4872831;29;45506;-81
2023/03/31 07:48:12;;;;;;;;;3.33;3.33;;;;;16.54;100.00;99189.41;4866008;29;45513;-81
2023/03/31 07:50:38;;;;;;;;;2.33;2.00;;;;;16.51;100.00;99190.38;4841382;29;47135;-80
2023/03/31 07:53:04;;;;;;;;;2.33;2.33;;;;;16.48;100.00;99190.50;4853968;29;45416;-81
2023/03/31 07:55:31;;;;;;;;;4.00;2.33;;;;;16.65;100.00;99197.09;4855272;29;45500;-80
2023/03/31 07:57:59;;;;;;;;;5.33;3.00;;;;;16.61;100.00;99169.47;4840827;29;45467;-80
2023/03/31 08:00:28;;;;;;;;;3.67;2.67;;;;;16.71;100.00;99191.50;4837779;29;46868;-81
2023/03/31 08:03:37;;;;;;;;;5.67;4.67;;;;;16.80;100.00;99196.53;4837692;29;45482;-81
2023/03/31 08:06:27;;;;;;;;;3.33;2.33;;;;;16.70;100.00;99181.69;4838265;29;45392;-80
2023/03/31 08:08:57;;;;;;;;;1.33;1.33;;;;;16.65;100.00;99159.50;4799258;29;45507;-80
2023/03/31 08:11:25;;;;;;;;;4.67;4.00;;;;;16.70;100.00;99189.72;4816074;29;45418;-81
2023/03/31 08:13:52;;;;;;;;;3.00;2.33;;;;;16.79;100.00;99184.03;4800290;29;44806;-81
2023/03/31 08:16:18;;;;;;;;;3.67;3.67;;;;;16.73;100.00;99174.41;4814051;29;45634;-81
2023/03/31 08:18:44;;;;;;;;;5.25;3.00;;;;;16.87;100.00;99176.63;4807759;29;45461;-79
2023/03/31 08:21:18;;;;;;;;;8.00;5.67;;;;;17.22;100.00;99182.47;4794257;29;45504;-80
2023/03/31 08:23:47;;;;;;;;;2.33;2.00;;;;;17.18;100.00;99170.09;4795323;29;45005;-80
2023/03/31 08:26:17;;;;;;;;;4.75;4.50;;;;;16.93;100.00;99156.72;4811555;29;45506;-81
2023/03/31 08:28:49;;;;;;;;;6.00;4.00;;;;;17.04;100.00;99194.78;4796303;29;45424;-81
2023/03/31 08:31:30;;;;;;;;;3.33;3.33;;;;;17.03;100.00;99186.78;4786132;29;45445;-81
2023/03/31 08:33:57;;;;;;;;;2.00;2.00;;;;;16.83;100.00;99176.78;4855693;29;45818;-80
2023/03/31 08:36:22;;;;;;;;;3.00;2.00;;;;;17.06;100.00;99170.56;4852982;29;45382;-80
2023/03/31 08:38:48;;;;;;;;;4.00;3.67;;;;;17.20;100.00;99195.09;4870429;29;45518;-80
2023/03/31 08:41:27;;;;;;;;;5.00;2.00;;;;;17.24;98.78;99175.22;4856888;29;46978;-80
2023/03/31 08:44:01;;;;;;;;;3.00;3.00;;;;;17.26;99.74;99183.25;4874214;29;45460;-81
2023/03/31 08:46:38;;;;;;;;;3.00;3.00;;;;;17.45;98.39;99164.56;4873661;29;44836;-80
2023/03/31 08:49:19;;;;;;;;;5.67;3.33;;;;;17.60;94.74;99166.66;4841992;29;45489;-79
2023/03/31 08:52:06;;;;;;;;;5.33;4.00;;;;;17.73;93.97;99173.31;4849017;29;47283;-80
2023/03/31 08:54:56;;;;;;;;;7.33;3.33;;;;;17.72;94.38;99166.16;4855556;29;45517;-81
2023/03/31 08:57:42;;;;;;;;;5.00;3.00;;;;;17.88;94.39;99179.03;4861020;29;45432;-80
2023/03/31 09:00:19;;;;;;;;;2.25;2.25;;;;;18.00;94.75;99154.31;4869372;29;45949;-81
2023/03/31 09:04:02;;;;;;;;;;;;;;;;;;;;;
2023/03/31 09:06:49;;;;;;;;;3.50;3.50;;;;;18.15;90.71;99163.56;4869607;29;44837;-80
2023/03/31 09:09:51;;;;;;;;;8.00;5.00;;;;;17.87;88.81;99142.31;4808592;29;45397;-81
2023/03/31 09:12:36;;;;;;;;;5.50;4.25;;;;;18.04;87.61;99165.81;4858874;29;45368;-81
2023/03/31 09:16:03;;;;;;;;;5.00;4.00;;;;;17.84;90.51;99142.44;4860018;29;45301;-81
2023/03/31 09:21:55;;;;;;;;;5.33;1.00;;;;;18.07;90.70;99161.19;4861709;29;45395;-80
2023/03/31 09:24:46;;;;;;;;;2.00;2.00;;;;;17.95;89.90;99161.69;4856476;29;45417;-80
2023/03/31 09:27:13;;;;;;;;;4.67;2.67;;;;;17.80;91.63;99212.44;4861369;29;46734;-82
2023/03/31 09:29:58;;;;;;;;;5.00;4.00;;;;;17.49;100.00;99176.97;4855950;29;45308;-80
2023/03/31 09:32:36;;;;;;;;;3.33;3.33;;;;;17.32;100.00;99191.94;4862174;29;45426;-80
2023/03/31 09:38:11;;;;;;;;;3.00;3.00;;;;;16.40;100.00;99189.88;4852178;29;45768;-81
2023/03/31 09:40:37;;;;;;;;;6.00;3.33;;;;;16.08;100.00;99167.72;4846993;29;44867;-81
2023/03/31 09:43:23;;;;;;;;;2.00;2.00;;;;;16.32;100.00;99189.28;4875375;29;44780;-81
2023/03/31 09:45:49;;;;;;;;;4.33;3.00;;;;;16.28;100.00;99160.78;4867042;29;42066;-81
2023/03/31 09:48:39;;;;;;;;;4.33;3.00;;;;;16.58;100.00;99134.69;4866689;29;37993;-81
2023/03/31 09:51:16;;;;;;;;;2.00;1.00;;;;;16.71;100.00;99172.72;4766924;29;43326;-81
2023/03/31 09:53:46;;;;;;;;;4.00;2.25;;;;;16.76;100.00;99181.47;4776400;29;44793;-80
2023/03/31 09:56:32;;;;;;;;;1.25;1.25;;;;;16.99;100.00;99160.06;4767550;29;45743;-80
2023/03/31 09:59:15;;;;;;;;;;;;;;;;;;;;;
2023/03/31 10:01:41;;;;;;;;;3.00;2.00;;;;;17.33;100.00;99160.56;4782251;29;71997;-80
2023/03/31 10:04:44;;;;;;;;;3.00;2.00;;;;;17.51;100.00;99137.44;4761583;29;45094;-80
2023/03/31 10:08:21;;;;;;;;;5.25;4.75;;;;;-146.37;100.00;59337.28;4767997;29;44863;-79
2023/03/31 10:10:56;;;;;;;;;5.40;2.40;;;;;18.11;100.00;99156.56;4796039;29;30334;-80
2023/03/31 10:13:51;;;;;;;;;2.20;2.20;;;;;-146.37;100.00;59337.28;4781449;29;28545;-80
2023/03/31 10:16:58;;;;;;;;;18.33;18.33;;;;;18.11;100.00;99156.56;4777310;29;28557;-80
2023/03/31 10:22:25;;;;;;;;;2.25;1.75;;;;;18.72;100.00;99175.44;4781622;29;29020;-79
2023/03/31 10:24:51;;;;;;;;;1.00;1.00;;;;;18.53;100.00;99132.28;4778321;29;29459;-80
2023/03/31 10:27:36;;;;;;;;;4.00;2.00;;;;;18.78;100.00;99144.63;4778404;29;27968;-81
2023/03/31 10:33:26;;;;;;;;;3.33;1.67;;;;;19.26;100.00;99159.53;4815631;29;27962;-82
2023/03/31 10:36:22;;;;;;;;;5.00;3.33;;;;;19.44;100.00;99151.53;4799267;29;28886;-77
2023/03/31 10:38:50;;;;;;;;;3.25;2.00;;;;;19.44;100.00;99148.84;4800861;29;28655;-77
2023/03/31 10:41:25;;;;;;;;;7.33;7.33;;;;;19.63;93.88;99138.88;4790374;29;29562;-76
2023/03/31 10:44:01;;;;;;;;;3.67;3.00;;;;;19.70;97.24;99137.66;4807556;29;29951;-77
2023/03/31 10:46:50;;;;;;;;;2.75;2.25;;;;;19.78;92.10;99146.28;4790335;29;28885;-76
2023/03/31 10:49:29;;;;;;;;;2.00;2.00;;;;;19.80;91.02;99150.72;4787598;29;28845;-76
2023/03/31 10:52:05;;;;;;;;;17.33;16.00;;;;;19.78;99.95;99153.50;4802269;29;28637;-75
2023/03/31 10:54:36;;;;;;;;;6.00;5.67;;;;;19.91;95.89;99129.47;4871431;29;28970;-75
2023/03/31 10:57:05;;;;;;;;;4.00;4.00;;;;;20.03;91.65;99136.09;4855680;29;28128;-75
2023/03/31 11:00:13;;;;;;;;;1.25;1.00;;;;;20.31;91.78;99154.44;4854740;29;27891;-76
2023/03/31 11:03:16;;;;;;;;;4.00;2.00;;;;;20.30;88.35;99147.28;4868608;29;28590;-77
2023/03/31 11:05:59;;;;;;;;;4.33;3.00;;;;;20.09;88.43;99155.53;4876040;29;28484;-75
2023/03/31 11:09:05;;;;;;;;;15.67;14.33;;;;;20.02;88.84;99147.81;4873346;29;28508;-75
2023/03/31 11:12:00;;;;;;;;;1.50;1.00;;;;;20.01;81.15;99160.44;4812190;29;29427;-76
2023/03/31 11:14:56;;;;;;;;;3.25;3.00;;;;;20.11;85.29;99150.06;4807354;29;28870;-76
2023/03/31 11:17:56;;;;;;;;;9.67;7.33;;;;;20.17;85.44;99145.22;4821820;29;28522;-74
2023/03/31 11:20:43;;;;;;;;;5.67;5.00;;;;;20.29;85.04;99170.72;4824585;29;28002;-76
2023/03/31 11:23:20;;;;;;;;;2.75;2.75;;;;;20.36;79.42;99152.41;4809553;29;28555;-76
2023/03/31 11:25:57;;;;;;;;;6.00;5.67;;;;;20.44;82.85;99160.97;4799829;29;28042;-76
2023/03/31 11:28:44;;;;;;;;;5.33;5.00;;;;;20.62;79.65;99167.25;4847625;23;29681;-75
2023/03/31 11:31:37;;;;;;;;;2.00;2.00;;;;;20.78;77.83;99151.09;4867798;29;28556;-82
2023/03/31 11:34:21;;;;;;;;;3.75;2.00;;;;;20.84;80.25;99153.47;4878763;29;27937;-80
2023/03/31 11:37:12;;;;;;;;;2.00;1.67;;;;;20.91;79.44;99135.13;4870981;29;28666;-82
2023/03/31 11:39:54;;;;;;;;;3.00;2.00;;;;;20.87;77.20;99136.25;4876021;29;29228;-82
2023/03/31 11:42:34;;;;;;;;;4.50;1.00;;;;;20.76;77.58;99131.41;4871625;29;28830;-83
2023/03/31 11:45:11;;;;;;;;;2.25;2.25;;;;;20.65;78.28;99147.31;4905548;29;27872;-83
2023/03/31 11:47:45;;;;;;;;;2.00;2.00;;;;;20.55;76.61;99136.97;4888607;29;27908;-82
2023/03/31 11:50:37;;;;;;;;;3.00;1.00;;;;;20.52;75.96;99153.34;4885853;29;28600;-82
2023/03/31 11:53:14;;;;;;;;;1.00;1.00;;;;;20.61;78.13;99132.25;4886665;29;28529;-80
2023/03/31 11:55:47;;;;;;;;;2.00;2.00;;;;;20.55;75.32;99120.75;4892202;29;28534;-82
2023/03/31 11:58:51;;;;;;;;;1.67;0.33;;;;;20.61;70.54;99130.41;4906641;29;28632;-81
2023/03/31 12:02:16;;;;;;;;;1.33;1.33;;;;;20.74;71.82;99134.22;4897140;29;30121;-83
2023/03/31 12:04:48;;;;;;;;;2.00;2.00;;;;;20.78;71.65;99126.78;4873680;29;28818;-82
2023/03/31 12:07:48;;;;;;;;;1.00;1.00;;;;;20.94;68.70;99124.13;4882692;29;28350;-82
2023/03/31 12:20:58;;;;;;;;;1.00;0.50;;;;;20.18;70.79;99143.41;4763082;29;28027;-83
2023/03/31 12:24:13;;;;;;;;;4.33;1.00;;;;;19.95;74.28;99120.28;4745476;30;28508;-83
2023/03/31 12:26:58;;;;;;;;;0.25;0.25;;;;;20.28;73.44;99120.38;4733360;30;28619;-82
2023/03/31 12:30:22;;;;;;;;;3.25;2.75;;;;;20.27;72.89;99113.22;4743181;29;28618;-84
2023/03/31 12:33:08;;;;;;;;;2.75;1.00;;;;;20.41;68.80;99108.94;4722934;30;28818;-82